Time;durP1;ratioP1;P1;durP2;ratioP2;P2;SDS_P1;SDS_P2;PMS_P1;PMS_P2;Temp;Humidity;BMP_temperature;BMP_pressure;BME280_temperature;BME280_humidity;BME280_pressure;Samples;Min_cycle;Max_cycle;Signal;HPM_P1;HPM_P2
2023/06/08 00:02:23;;;;;;;14.82;8.85;;;13.10;99.90;;;;;;5085034;28;20402;-88
2023/06/08 00:04:52;;;;;;;18.45;11.50;;;13.10;99.90;;;;;;5067015;28;20515;-88
2023/06/08 00:07:18;;;;;;;18.00;12.77;;;13.10;99.90;;;;;;5067868;28;20414;-88
2023/06/08 00:09:45;;;;;;;19.45;14.48;;;13.00;99.90;;;;;;5084227;28;20539;-88
2023/06/08 00:12:11;;;;;;;23.43;16.57;;;13.00;99.90;;;;;;5083740;28;20424;-88
2023/06/08 00:14:38;;;;;;;23.13;16.40;;;13.00;99.90;;;;;;5085116;28;20410;-88
2023/06/08 00:17:04;;;;;;;25.92;16.52;;;12.90;99.90;;;;;;5066776;28;20847;-89
2023/06/08 00:19:35;;;;;;;23.17;16.80;;;12.90;99.90;;;;;;5085272;28;20454;-88
2023/06/08 00:22:04;;;;;;;23.90;16.85;;;12.90;99.90;;;;;;5083818;28;20414;-88
2023/06/08 00:24:31;;;;;;;21.88;15.73;;;12.80;99.90;;;;;;5084406;28;20440;-90
2023/06/08 00:26:57;;;;;;;22.90;15.43;;;12.80;99.90;;;;;;5084512;28;20807;-88
2023/06/08 00:29:23;;;;;;;20.08;14.25;;;13.20;99.90;;;;;;5066856;28;20444;-87
2023/06/08 00:31:48;;;;;;;18.58;13.82;;;12.80;99.90;;;;;;5067668;28;20402;-88
2023/06/08 00:34:14;;;;;;;20.00;13.20;;;12.80;99.90;;;;;;5066605;28;20486;-89
2023/06/08 00:36:40;;;;;;;20.83;13.00;;;12.90;99.90;;;;;;5084783;28;20395;-89
2023/06/08 00:39:06;;;;;;;18.52;12.90;;;12.80;99.90;;;;;;5066295;28;20434;-89
2023/06/08 00:41:31;;;;;;;20.80;12.70;;;12.80;99.90;;;;;;5084816;28;20502;-89
2023/06/08 00:43:57;;;;;;;18.43;12.00;;;12.80;99.90;;;;;;5084059;28;20425;-87
2023/06/08 00:46:25;;;;;;;17.85;12.65;;;12.80;99.90;;;;;;5067246;28;20485;-88
2023/06/08 00:48:52;;;;;;;16.67;10.70;;;12.90;99.90;;;;;;5070065;28;20399;-88
2023/06/08 00:51:19;;;;;;;17.15;10.18;;;12.90;99.90;;;;;;5087308;28;20413;-88
2023/06/08 00:53:46;;;;;;;18.70;10.10;;;12.80;99.90;;;;;;5088205;28;20405;-87
2023/06/08 00:56:16;;;;;;;15.03;9.60;;;12.80;99.90;;;;;;5069808;28;20410;-88
2023/06/08 00:58:48;;;;;;;15.50;8.48;;;12.90;99.90;;;;;;5071243;28;20838;-87
2023/06/08 01:01:17;;;;;;;15.48;7.93;;;12.80;99.90;;;;;;5087120;28;20406;-89
2023/06/08 01:03:45;;;;;;;14.38;7.30;;;12.80;99.90;;;;;;5087697;28;20437;-88
2023/06/08 01:06:12;;;;;;;16.45;7.07;;;12.80;99.90;;;;;;5087780;28;20489;-88
2023/06/08 01:08:52;;;;;;;17.70;7.47;;;12.80;99.90;;;;;;5069738;28;20402;-89
2023/06/08 01:11:31;;;;;;;13.88;7.10;;;12.70;99.90;;;;;;5088125;28;20418;-88
2023/06/08 01:14:13;;;;;;;15.98;7.55;;;12.70;99.90;;;;;;5086688;28;20489;-87
2023/06/08 01:16:44;;;;;;;17.05;8.23;;;12.70;99.90;;;;;;5087136;28;20502;-88
2023/06/08 01:19:17;;;;;;;15.40;8.27;;;12.70;99.90;;;;;;5070792;28;20512;-88
2023/06/08 01:22:23;;;;;;;14.38;8.40;;;12.70;99.90;;;;;;5086467;28;20489;-87
2023/06/08 01:24:52;;;;;;;14.85;7.32;;;12.70;99.90;;;;;;5087487;28;20754;-89
2023/06/08 01:27:20;;;;;;;13.27;7.88;;;12.70;99.90;;;;;;5069886;28;20899;-87
2023/06/08 01:29:48;;;;;;;15.07;9.20;;;12.70;99.90;;;;;;5086457;28;20497;-88
2023/06/08 01:32:13;;;;;;;18.57;10.20;;;12.70;99.90;;;;;;5087373;28;20410;-88
2023/06/08 01:34:40;;;;;;;16.80;10.07;;;12.70;99.90;;;;;;5086554;28;20467;-88
2023/06/08 01:37:15;;;;;;;17.08;10.10;;;12.70;99.90;;;;;;5087096;28;20436;-88
2023/06/08 01:40:00;;;;;;;18.60;11.13;;;12.70;99.90;;;;;;5069262;28;20801;-88
2023/06/08 01:42:28;;;;;;;20.67;11.90;;;12.70;99.90;;;;;;5087259;28;20773;-88
2023/06/08 01:45:00;;;;;;;17.83;12.17;;;12.70;99.90;;;;;;5086827;28;20514;-89
2023/06/08 01:47:38;;;;;;;14.97;10.60;;;12.80;99.90;;;;;;5086174;28;20422;-88
2023/06/08 01:50:05;;;;;;;19.92;12.25;;;12.70;99.90;;;;;;5087151;28;20497;-88
2023/06/08 01:52:31;;;;;;;19.83;12.40;;;12.70;99.90;;;;;;5086080;28;20497;-88
2023/06/08 01:54:57;;;;;;;18.73;11.10;;;12.70;99.90;;;;;;5070132;28;20452;-88
2023/06/08 01:57:23;;;;;;;16.33;10.40;;;12.80;99.90;;;;;;5086197;28;20849;-87
2023/06/08 01:59:49;;;;;;;19.07;10.77;;;12.60;99.90;;;;;;5085693;28;20457;-88
2023/06/08 02:02:15;;;;;;;17.15;10.23;;;13.00;99.90;;;;;;5069460;28;20413;-88
2023/06/08 02:04:40;;;;;;;16.30;9.50;;;12.70;99.90;;;;;;5069454;28;20402;-88
2023/06/08 02:07:06;;;;;;;17.93;10.33;;;12.70;99.90;;;;;;5086706;28;20391;-88
2023/06/08 02:09:32;;;;;;;15.75;10.13;;;12.70;99.90;;;;;;5085257;28;20901;-87
2023/06/08 02:12:08;;;;;;;15.13;10.32;;;12.70;99.90;;;;;;5088025;28;20422;-89
2023/06/08 02:14:34;;;;;;;16.50;9.93;;;12.80;99.90;;;;;;5085447;28;20445;-87
2023/06/08 02:17:00;;;;;;;17.23;10.15;;;12.70;99.90;;;;;;5069127;28;20996;-88
2023/06/08 02:19:26;;;;;;;15.68;11.02;;;12.70;99.90;;;;;;5069088;28;20524;-89
2023/06/08 02:21:53;;;;;;;16.30;11.88;;;13.10;99.90;;;;;;5068955;28;20442;-87
2023/06/08 02:24:19;;;;;;;18.47;11.50;;;12.70;99.90;;;;;;5086461;28;20402;-88
2023/06/08 02:26:44;;;;;;;16.00;10.80;;;12.80;99.90;;;;;;5085070;28;20406;-88
2023/06/08 02:29:10;;;;;;;16.40;11.20;;;12.90;99.90;;;;;;5086194;28;20406;-88
2023/06/08 02:31:36;;;;;;;18.20;11.40;;;12.70;99.90;;;;;;5084968;28;20893;-87
2023/06/08 02:34:01;;;;;;;20.53;12.07;;;12.80;99.90;;;;;;5086184;28;20406;-88
2023/06/08 02:36:31;;;;;;;17.10;10.50;;;13.00;99.90;;;;;;5085581;28;20418;-88
2023/06/08 02:38:57;;;;;;;19.55;10.65;;;12.90;99.90;;;;;;5068482;28;20426;-88
2023/06/08 02:41:23;;;;;;;15.50;9.68;;;12.70;99.90;;;;;;5069345;28;20543;-87
2023/06/08 02:43:49;;;;;;;17.90;9.73;;;12.70;99.90;;;;;;5084651;28;20939;-87
2023/06/08 02:46:14;;;;;;;17.75;11.02;;;12.70;99.90;;;;;;5069121;28;20545;-88
2023/06/08 02:48:40;;;;;;;17.67;10.40;;;12.70;99.90;;;;;;5084499;28;20915;-87
2023/06/08 02:51:06;;;;;;;17.93;10.93;;;13.10;99.90;;;;;;5085828;28;20421;-88
2023/06/08 02:53:32;;;;;;;20.85;10.38;;;12.70;99.90;;;;;;5067696;28;20439;-88
2023/06/08 02:55:58;;;;;;;14.93;9.18;;;12.70;99.90;;;;;;5068234;28;20406;-88
2023/06/08 02:58:24;;;;;;;16.95;9.68;;;12.70;99.90;;;;;;5068195;28;20808;-87
2023/06/08 03:00:53;;;;;;;15.63;8.80;;;12.70;99.90;;;;;;5084539;28;20943;-88
2023/06/08 03:03:23;;;;;;;16.17;8.55;;;12.70;99.90;;;;;;5068731;28;20402;-88
2023/06/08 03:05:50;;;;;;;16.83;8.32;;;12.70;99.90;;;;;;5084279;28;20507;-89
2023/06/08 03:08:16;;;;;;;16.65;8.50;;;12.70;99.90;;;;;;5085923;28;20536;-89
2023/06/08 03:10:42;;;;;;;19.80;8.18;;;12.70;99.90;;;;;;5083744;28;20896;-88
2023/06/08 03:13:08;;;;;;;14.77;7.50;;;12.70;99.90;;;;;;5068295;28;20418;-89
2023/06/08 03:15:33;;;;;;;14.37;7.77;;;12.70;99.90;;;;;;5068373;28;20730;-88
2023/06/08 03:17:59;;;;;;;15.38;8.07;;;12.70;99.90;;;;;;5068513;28;20409;-88
2023/06/08 03:20:25;;;;;;;16.53;7.50;;;13.10;99.90;;;;;;5068646;28;20472;-88
2023/06/08 03:22:50;;;;;;;15.07;7.97;;;12.70;99.90;;;;;;5084447;28;20425;-88
2023/06/08 03:25:16;;;;;;;13.07;8.07;;;12.70;99.90;;;;;;5068599;28;20417;-88
2023/06/08 03:27:45;;;;;;;13.50;7.60;;;12.70;99.90;;;;;;5067017;28;20417;-87
2023/06/08 03:30:12;;;;;;;16.25;8.20;;;12.80;99.90;;;;;;5084599;28;21710;-91
2023/06/08 03:32:38;;;;;;;16.80;7.63;;;12.80;99.90;;;;;;5067355;28;20485;-88
2023/06/08 03:35:05;;;;;;;13.38;7.53;;;12.80;99.90;;;;;;5067816;28;20462;-88
2023/06/08 03:37:30;;;;;;;14.67;7.97;;;12.80;99.90;;;;;;5084925;28;20402;-88
2023/06/08 03:39:56;;;;;;;12.73;7.50;;;12.80;99.90;;;;;;5066981;28;20426;-92
2023/06/08 03:42:21;;;;;;;13.63;7.07;;;12.90;99.90;;;;;;5085448;28;20409;-88
2023/06/08 03:44:47;;;;;;;12.87;7.00;;;12.80;99.90;;;;;;5084238;28;20887;-88
2023/06/08 03:47:12;;;;;;;15.07;8.23;;;12.90;99.90;;;;;;5085085;28;20439;-89
2023/06/08 03:49:38;;;;;;;15.88;7.28;;;12.90;99.90;;;;;;5084290;28;20406;-87
2023/06/08 03:52:04;;;;;;;18.15;7.70;;;12.90;99.90;;;;;;5084792;28;20858;-88
2023/06/08 03:54:30;;;;;;;16.85;7.53;;;12.90;99.90;;;;;;5084730;28;20408;-88
2023/06/08 03:56:56;;;;;;;13.52;6.93;;;12.90;99.90;;;;;;5084207;28;20459;-88
2023/06/08 03:59:21;;;;;;;14.67;6.93;;;12.90;99.90;;;;;;5084909;28;20434;-87
2023/06/08 04:01:47;;;;;;;15.18;7.38;;;12.90;99.90;;;;;;5066794;28;20398;-88
2023/06/08 04:04:13;;;;;;;17.83;7.23;;;13.20;99.90;;;;;;5085103;28;20750;-88
2023/06/08 04:06:40;;;;;;;13.77;6.93;;;13.00;99.90;;;;;;5067022;28;20460;-88
2023/06/08 04:09:06;;;;;;;16.65;6.85;;;12.90;99.90;;;;;;5068023;28;20413;-89
2023/06/08 04:11:32;;;;;;;15.70;7.05;;;13.00;99.90;;;;;;5067325;28;20410;-88
2023/06/08 04:13:58;;;;;;;15.65;7.05;;;13.00;99.90;;;;;;5084160;28;20931;-88
2023/06/08 04:16:23;;;;;;;15.10;7.43;;;13.20;99.90;;;;;;5085111;28;20437;-89
2023/06/08 04:18:49;;;;;;;15.30;6.90;;;13.10;99.90;;;;;;5084116;28;20432;-89
2023/06/08 04:21:15;;;;;;;15.63;6.88;;;13.00;99.90;;;;;;5068428;28;20735;-89
2023/06/08 04:23:41;;;;;;;14.65;6.70;;;13.10;99.90;;;;;;5087377;28;20478;-87
2023/06/08 04:26:07;;;;;;;16.73;7.40;;;13.60;99.90;;;;;;5088655;28;20398;-90
2023/06/08 04:28:34;;;;;;;16.55;7.55;;;13.10;99.90;;;;;;5070304;28;20418;-86
2023/06/08 04:30:59;;;;;;;17.05;7.57;;;13.50;99.90;;;;;;5071269;28;20410;-89
2023/06/08 04:33:26;;;;;;;16.00;6.77;;;13.10;99.90;;;;;;5070968;28;20917;-87
2023/06/08 04:35:52;;;;;;;17.08;7.25;;;13.10;99.90;;;;;;5071153;28;20413;-88
2023/06/08 04:38:17;;;;;;;17.08;7.05;;;13.20;99.90;;;;;;5071452;28;20780;-89
2023/06/08 04:40:53;;;;;;;15.27;6.63;;;13.30;99.90;;;;;;5070272;28;20414;-89
2023/06/08 04:43:25;;;;;;;16.67;7.30;;;13.20;99.90;;;;;;5071647;28;20418;-87
2023/06/08 04:45:59;;;;;;;15.82;7.40;;;13.40;99.90;;;;;;5087309;28;20418;-87
2023/06/08 04:48:28;;;;;;;17.30;7.28;;;13.50;99.90;;;;;;5088096;28;20488;-88
2023/06/08 04:50:59;;;;;;;13.60;6.83;;;13.30;99.90;;;;;;5071623;28;20772;-89
2023/06/08 04:53:26;;;;;;;17.75;7.32;;;13.40;99.90;;;;;;5070454;28;20414;-89
2023/06/08 04:55:57;;;;;;;14.38;6.60;;;13.40;99.90;;;;;;5088196;28;20394;-89
2023/06/08 04:58:25;;;;;;;16.23;7.03;;;13.50;99.90;;;;;;5086793;28;20882;-88
2023/06/08 05:00:52;;;;;;;13.57;6.77;;;13.50;99.90;;;;;;5071091;28;20402;-89
2023/06/08 05:03:20;;;;;;;15.43;6.93;;;13.60;99.90;;;;;;5070060;28;20406;-89
2023/06/08 05:05:47;;;;;;;18.10;7.57;;;13.60;99.90;;;;;;5087562;28;20458;-89
2023/06/08 05:08:12;;;;;;;14.70;6.68;;;13.70;99.90;;;;;;5087622;28;20395;-88
2023/06/08 05:10:38;;;;;;;14.20;6.87;;;13.90;99.90;;;;;;5069905;28;20468;-90
2023/06/08 05:13:03;;;;;;;14.35;6.28;;;13.80;99.90;;;;;;5087804;28;20414;-88
2023/06/08 05:15:33;;;;;;;15.67;6.37;;;13.90;99.90;;;;;;5086372;28;20425;-90
2023/06/08 05:17:59;;;;;;;14.40;6.65;;;13.90;99.90;;;;;;5087849;28;20399;-88
2023/06/08 05:20:26;;;;;;;16.27;6.70;;;13.90;99.90;;;;;;5086694;28;20721;-88
2023/06/08 05:22:53;;;;;;;14.85;6.38;;;14.10;99.90;;;;;;5087460;28;20880;-90
2023/06/08 05:25:19;;;;;;;13.52;6.50;;;14.00;99.90;;;;;;5069876;28;20417;-88
2023/06/08 05:27:45;;;;;;;17.10;6.78;;;14.00;99.90;;;;;;5069970;28;20426;-89
2023/06/08 05:30:11;;;;;;;14.70;6.50;;;14.10;99.90;;;;;;5070137;28;20406;-88
2023/06/08 05:32:37;;;;;;;16.00;6.32;;;14.10;99.90;;;;;;5086541;28;20910;-90
2023/06/08 05:35:03;;;;;;;13.75;5.90;;;14.50;99.90;;;;;;5069946;28;20414;-86
2023/06/08 05:37:29;;;;;;;12.85;5.82;;;14.30;99.90;;;;;;5086140;28;20430;-89
2023/06/08 05:39:55;;;;;;;15.47;5.70;;;14.40;99.90;;;;;;5070348;28;20468;-89
2023/06/08 05:42:24;;;;;;;12.82;5.70;;;14.40;99.90;;;;;;5087860;28;20398;-88
2023/06/08 05:44:50;;;;;;;14.07;5.88;;;14.40;99.90;;;;;;5086609;28;20792;-88
2023/06/08 05:47:16;;;;;;;11.68;5.70;;;14.40;99.90;;;;;;5087027;28;20456;-86
2023/06/08 05:49:41;;;;;;;11.33;5.47;;;14.50;99.90;;;;;;5086233;28;20410;-88
2023/06/08 05:52:07;;;;;;;15.80;5.80;;;14.70;99.90;;;;;;5070422;28;20474;-88
2023/06/08 05:54:33;;;;;;;14.18;5.68;;;14.90;99.90;;;;;;5068575;28;20927;-88
2023/06/08 05:57:00;;;;;;;14.10;6.30;;;14.70;99.90;;;;;;5087142;28;20398;-90
2023/06/08 05:59:26;;;;;;;14.80;6.00;;;14.80;99.90;;;;;;5069116;28;20430;-89
2023/06/08 06:01:53;;;;;;;14.20;5.63;;;14.70;99.90;;;;;;5069597;28;20394;-88
2023/06/08 06:04:19;;;;;;;14.73;5.17;;;14.80;99.90;;;;;;5085982;28;20426;-89
2023/06/08 06:06:45;;;;;;;16.40;5.80;;;14.80;99.90;;;;;;5085765;28;20460;-91
2023/06/08 06:09:11;;;;;;;13.23;5.55;;;14.90;99.90;;;;;;5086431;28;20791;-89
2023/06/08 06:11:37;;;;;;;17.02;6.00;;;15.10;99.90;;;;;;5085611;28;20414;-89
2023/06/08 06:14:03;;;;;;;13.70;5.20;;;15.10;99.90;;;;;;5069816;28;20398;-89
2023/06/08 06:16:28;;;;;;;12.57;5.43;;;15.40;99.90;;;;;;5068388;28;20997;-87
2023/06/08 06:18:54;;;;;;;13.63;5.25;;;15.40;99.90;;;;;;5086521;28;20456;-89
2023/06/08 06:21:20;;;;;;;12.57;4.87;;;15.40;99.90;;;;;;5068533;28;20916;-89
2023/06/08 06:23:46;;;;;;;11.70;5.18;;;15.50;99.90;;;;;;5069164;28;20443;-89
2023/06/08 06:26:11;;;;;;;13.30;5.63;;;15.70;99.90;;;;;;5086004;28;20402;-89
2023/06/08 06:28:38;;;;;;;13.43;5.40;;;15.70;99.90;;;;;;5085335;28;20398;-89
2023/06/08 06:31:05;;;;;;;13.70;5.47;;;15.90;99.90;;;;;;5069635;28;20456;-88
2023/06/08 06:33:31;;;;;;;11.98;5.25;;;16.10;99.90;;;;;;5085017;28;20401;-89
2023/06/08 06:35:57;;;;;;;12.40;5.68;;;16.50;99.90;;;;;;5086286;28;21078;-89
2023/06/08 06:38:22;;;;;;;13.80;5.53;;;16.50;99.90;;;;;;5068993;28;20885;-89
2023/06/08 06:40:52;;;;;;;13.23;6.20;;;16.50;99.90;;;;;;5085698;28;20390;-88
2023/06/08 06:43:24;;;;;;;11.73;5.10;;;16.30;99.90;;;;;;5085618;28;20463;-88
2023/06/08 06:45:50;;;;;;;12.93;6.13;;;16.30;99.90;;;;;;5067560;28;20390;-87
2023/06/08 06:48:21;;;;;;;14.50;5.70;;;16.30;99.90;;;;;;5086407;28;20981;-89
2023/06/08 06:50:47;;;;;;;13.65;5.72;;;16.40;99.90;;;;;;5067696;28;20437;-87
2023/06/08 06:53:13;;;;;;;13.98;6.05;;;16.40;99.90;;;;;;5069130;28;20398;-87
2023/06/08 06:55:39;;;;;;;13.63;5.20;;;16.50;99.90;;;;;;5084877;28;20390;-88
2023/06/08 06:58:05;;;;;;;14.70;5.40;;;16.70;99.90;;;;;;5085906;28;20398;-90
2023/06/08 07:00:37;;;;;;;14.05;5.45;;;16.80;99.90;;;;;;5085016;28;20879;-89
2023/06/08 07:03:09;;;;;;;11.57;5.75;;;17.00;99.90;;;;;;5068283;28;20420;-87
2023/06/08 07:05:36;;;;;;;15.00;5.50;;;17.10;99.90;;;;;;5083027;28;20477;-89
2023/06/08 07:08:02;;;;;;;13.65;4.85;;;17.50;99.90;;;;;;5084580;28;20424;-89
2023/06/08 07:10:29;;;;;;;13.15;4.90;;;17.30;99.90;;;;;;5085952;28;20405;-88
2023/06/08 07:12:56;;;;;;;12.90;4.95;;;17.30;99.90;;;;;;5084696;28;20493;-89
2023/06/08 07:15:22;;;;;;;10.48;4.80;;;17.30;99.90;;;;;;5068567;28;20402;-89
2023/06/08 07:17:47;;;;;;;14.77;5.07;;;17.40;99.90;;;;;;5068176;28;20475;-90
2023/06/08 07:20:14;;;;;;;13.38;4.45;;;17.50;99.90;;;;;;5067838;28;20426;-89
2023/06/08 07:22:40;;;;;;;14.85;5.35;;;17.60;99.90;;;;;;5068357;28;20406;-90
2023/06/08 07:25:06;;;;;;;11.77;4.13;;;17.80;99.90;;;;;;5067247;28;20410;-90
2023/06/08 07:27:32;;;;;;;12.52;4.32;;;17.80;99.90;;;;;;5085318;28;20421;-89
2023/06/08 07:29:57;;;;;;;11.70;4.28;;;17.90;99.90;;;;;;5066528;28;20410;-88
2023/06/08 07:32:26;;;;;;;12.70;4.87;;;18.00;99.90;;;;;;5068348;28;20405;-90
2023/06/08 07:34:52;;;;;;;10.98;4.10;;;17.80;99.90;;;;;;5068008;28;21017;-88
2023/06/08 07:37:17;;;;;;;12.00;4.03;;;17.90;99.90;;;;;;5067837;28;20486;-90
2023/06/08 07:39:43;;;;;;;12.95;4.85;;;18.10;99.90;;;;;;5067855;28;20483;-87
2023/06/08 07:42:08;;;;;;;9.20;3.90;;;17.90;99.90;;;;;;5067466;28;20406;-90
2023/06/08 07:44:34;;;;;;;10.70;4.35;;;17.90;99.90;;;;;;5084817;28;20398;-88
2023/06/08 07:47:02;;;;;;;9.03;3.97;;;18.10;99.90;;;;;;5066860;28;20406;-88
2023/06/08 07:49:29;;;;;;;11.75;4.45;;;18.20;99.90;;;;;;5085363;28;20819;-89
2023/06/08 07:51:54;;;;;;;11.80;4.60;;;18.30;99.90;;;;;;5067099;28;20740;-88
2023/06/08 07:54:21;;;;;;;14.53;5.37;;;18.40;99.90;;;;;;5068380;28;20398;-89
2023/06/08 07:56:47;;;;;;;11.45;4.63;;;18.50;99.90;;;;;;5085725;28;20409;-90
2023/06/08 07:59:13;;;;;;;10.88;4.07;;;18.60;99.90;;;;;;5088582;28;20465;-89
2023/06/08 08:01:39;;;;;;;10.50;3.97;;;19.10;99.90;;;;;;5071918;28;20931;-88
2023/06/08 08:04:04;;;;;;;10.23;4.32;;;18.90;99.90;;;;;;5071561;28;20485;-88
2023/06/08 08:06:30;;;;;;;11.37;4.37;;;18.90;99.90;;;;;;5089212;28;20404;-90
2023/06/08 08:08:55;;;;;;;10.13;3.67;;;18.90;99.90;;;;;;5070695;28;20500;-87
2023/06/08 08:11:21;;;;;;;11.83;3.97;;;18.90;99.90;;;;;;5072063;28;20452;-87
2023/06/08 08:13:47;;;;;;;11.55;4.18;;;19.00;99.90;;;;;;5088187;28;20406;-89
2023/06/08 08:16:13;;;;;;;8.67;3.47;;;19.10;99.90;;;;;;5088421;28;20417;-89
2023/06/08 08:18:38;;;;;;;12.10;4.22;;;19.20;99.90;;;;;;5088499;28;20433;-89
2023/06/08 08:21:04;;;;;;;11.60;3.93;;;19.30;99.90;;;;;;5071284;28;20402;-90
2023/06/08 08:23:29;;;;;;;11.02;4.10;;;19.10;99.90;;;;;;5088803;28;20911;-91
2023/06/08 08:25:55;;;;;;;10.93;3.97;;;19.20;99.90;;;;;;5070403;28;20445;-88
2023/06/08 08:28:21;;;;;;;9.93;3.90;;;19.30;99.90;;;;;;5071490;28;20413;-89
2023/06/08 08:30:46;;;;;;;8.90;3.70;;;19.40;99.90;;;;;;5070425;28;20417;-89
2023/06/08 08:33:13;;;;;;;11.68;4.10;;;19.80;99.90;;;;;;5071239;28;20907;-90
2023/06/08 08:35:38;;;;;;;10.85;3.85;;;19.70;99.90;;;;;;5087816;28;20455;-89
2023/06/08 08:38:04;;;;;;;9.13;3.27;;;20.10;99.90;;;;;;5087743;28;20406;-89
2023/06/08 08:40:29;;;;;;;11.63;3.83;;;20.10;99.00;;;;;;5071374;28;20429;-90
2023/06/08 08:43:22;;;;;;;9.60;3.70;;;20.00;99.90;;;;;;5070270;28;20508;-90
2023/06/08 08:45:50;;;;;;;9.90;4.00;;;20.10;99.90;;;;;;5071604;28;20410;-90
2023/06/08 08:48:19;;;;;;;9.37;3.47;;;20.20;99.90;;;;;;5087145;28;20402;-88
2023/06/08 08:50:51;;;;;;;11.33;3.93;;;20.40;99.90;;;;;;5088129;28;20450;-88
2023/06/08 08:53:17;;;;;;;10.60;3.85;;;20.40;99.40;;;;;;5087984;28;20477;-88
2023/06/08 08:55:47;;;;;;;12.85;3.90;;;20.50;96.50;;;;;;5087529;28;20966;-90
2023/06/08 08:58:18;;;;;;;12.07;3.95;;;20.50;98.20;;;;;;5088371;28;20490;-89
2023/06/08 09:00:48;;;;;;;10.13;4.05;;;20.60;99.60;;;;;;5086751;28;21037;-90
2023/06/08 09:03:15;;;;;;;10.07;3.50;;;20.60;98.70;;;;;;5071532;28;20412;-89
2023/06/08 09:05:43;;;;;;;10.57;3.65;;;20.60;99.90;;;;;;5087325;28;20473;-91
2023/06/08 09:08:09;;;;;;;9.25;3.42;;;20.80;99.90;;;;;;5069536;28;20421;-89
2023/06/08 09:10:35;;;;;;;10.07;3.90;;;21.10;99.50;;;;;;5070815;28;20390;-88
2023/06/08 09:13:02;;;;;;;9.48;3.60;;;21.10;98.60;;;;;;5069901;28;20777;-89
2023/06/08 09:15:29;;;;;;;9.73;3.47;;;20.80;96.70;;;;;;5087820;28;20405;-89
2023/06/08 09:17:55;;;;;;;8.93;3.30;;;20.80;99.00;;;;;;5086742;28;20390;-89
2023/06/08 09:20:32;;;;;;;9.40;3.63;;;20.90;97.50;;;;;;5088058;28;20422;-89
2023/06/08 09:22:58;;;;;;;7.50;3.30;;;21.00;97.90;;;;;;5069916;28;20414;-88
2023/06/08 09:25:36;;;;;;;7.55;3.30;;;21.10;97.20;;;;;;5070478;28;20957;-90
2023/06/08 09:28:24;;;;;;;9.02;3.55;;;21.40;95.50;;;;;;5070204;28;20479;-88
2023/06/08 09:31:00;;;;;;;8.70;3.50;;;21.20;94.40;;;;;;5087980;28;20395;-88
2023/06/08 09:33:33;;;;;;;9.40;3.17;;;21.20;95.10;;;;;;5087808;28;20407;-90
2023/06/08 09:35:58;;;;;;;9.05;3.28;;;21.20;97.90;;;;;;5086855;28;20428;-90
2023/06/08 09:38:28;;;;;;;8.50;3.20;;;21.30;96.30;;;;;;5070518;28;20414;-88
2023/06/08 09:41:21;;;;;;;9.73;3.78;;;21.40;96.50;;;;;;5070272;28;20430;-89
2023/06/08 09:43:49;;;;;;;10.33;3.40;;;21.60;96.90;;;;;;5086261;28;20402;-89
2023/06/08 09:46:36;;;;;;;8.82;2.78;;;21.70;95.90;;;;;;5070735;28;20418;-89
2023/06/08 09:49:07;;;;;;;12.82;4.82;;;21.80;93.40;;;;;;5069732;28;20414;-89
2023/06/08 09:51:37;;;;;;;11.23;4.07;;;22.00;96.40;;;;;;5083955;28;20923;-89
2023/06/08 09:54:04;;;;;;;8.57;2.90;;;22.10;95.90;;;;;;5087092;28;20738;-90
2023/06/08 09:56:30;;;;;;;7.90;2.95;;;22.20;93.40;;;;;;5086401;28;20572;-89
2023/06/08 09:58:57;;;;;;;10.60;3.90;;;22.30;96.10;;;;;;5087192;28;20975;-90
2023/06/08 10:01:31;;;;;;;8.95;3.83;;;22.80;94.70;;;;;;5085737;28;21208;-90
2023/06/08 10:03:59;;;;;;;11.05;4.28;;;22.60;89.80;;;;;;5087127;28;20483;-89
2023/06/08 10:06:26;;;;;;;11.70;4.75;;;22.60;85.20;;;;;;5069330;28;20394;-92
2023/06/08 10:08:54;;;;;;;7.03;3.33;;;22.80;92.10;;;;;;5068867;28;20495;-89
2023/06/08 10:11:21;;;;;;;7.35;3.58;;;22.90;78.80;;;;;;5086408;28;20484;-89
2023/06/08 10:13:47;;;;;;;8.63;3.22;;;23.00;80.10;;;;;;5085910;28;20502;-89
2023/06/08 10:16:13;;;;;;;8.73;3.60;;;23.10;81.40;;;;;;5086903;28;20485;-90
2023/06/08 10:18:39;;;;;;;10.05;3.20;;;23.40;83.40;;;;;;5086055;28;20416;-89
2023/06/08 10:21:05;;;;;;;7.25;2.75;;;23.40;74.30;;;;;;5069637;28;20467;-92
2023/06/08 10:23:32;;;;;;;8.38;3.45;;;23.60;74.80;;;;;;5068605;28;20905;-90
2023/06/08 10:25:58;;;;;;;8.17;2.53;;;24.10;69.40;;;;;;5086153;28;20427;-90
2023/06/08 10:28:23;;;;;;;7.05;2.80;;;23.90;72.30;;;;;;5085876;28;20410;-91
2023/06/08 10:30:49;;;;;;;9.07;4.23;;;24.10;71.10;;;;;;5068531;28;20896;-90
2023/06/08 10:33:20;;;;;;;8.35;3.30;;;24.30;72.00;;;;;;5086206;28;20402;-91
2023/06/08 10:36:11;;;;;;;7.90;3.25;;;24.40;70.00;;;;;;5085344;28;20394;-90
2023/06/08 10:38:54;;;;;;;9.05;3.50;;;24.50;65.20;;;;;;5085973;28;20410;-90
2023/06/08 10:41:40;;;;;;;8.35;3.65;;;24.80;66.10;;;;;;5068825;28;20909;-91
2023/06/08 10:44:05;;;;;;;7.90;3.40;;;24.80;58.90;;;;;;5085192;28;20413;-91
2023/06/08 10:46:41;;;;;;;7.05;3.50;;;24.90;56.40;;;;;;5069172;28;20706;-89
2023/06/08 10:49:07;;;;;;;7.05;3.17;;;25.00;58.30;;;;;;5068332;28;20414;-89
2023/06/08 10:51:43;;;;;;;7.60;3.28;;;25.20;59.00;;;;;;5085563;28;20394;-90
2023/06/08 10:54:09;;;;;;;8.80;3.50;;;25.50;56.00;;;;;;5068527;28;20493;-91
2023/06/08 10:56:46;;;;;;;7.35;3.08;;;26.00;57.70;;;;;;5068174;28;20421;-90
2023/06/08 10:59:12;;;;;;;8.73;3.45;;;26.20;55.40;;;;;;5085719;28;20425;-90
2023/06/08 11:01:38;;;;;;;7.10;2.90;;;26.80;52.20;;;;;;5084825;28;20475;-89
2023/06/08 11:04:05;;;;;;;6.05;2.38;;;26.60;54.00;;;;;;5069336;28;20453;-90
2023/06/08 11:06:33;;;;;;;8.07;3.20;;;26.70;51.40;;;;;;5084834;28;20409;-90
2023/06/08 11:08:59;;;;;;;7.45;2.60;;;26.80;50.80;;;;;;5085833;28;20455;-91
2023/06/08 11:11:26;;;;;;;8.05;3.10;;;26.80;49.70;;;;;;5068377;28;20405;-91
2023/06/08 11:13:54;;;;;;;7.57;3.42;;;27.00;49.80;;;;;;5068287;28;20413;-90
2023/06/08 11:16:20;;;;;;;8.25;2.63;;;27.00;49.30;;;;;;5068596;28;20478;-90
2023/06/08 11:18:46;;;;;;;6.82;2.58;;;27.00;50.00;;;;;;5084834;28;20777;-91
2023/06/08 11:21:11;;;;;;;8.80;3.05;;;27.10;48.90;;;;;;5085420;28;20402;-90
2023/06/08 11:23:37;;;;;;;6.80;2.57;;;27.10;45.20;;;;;;5067632;28;20501;-91
2023/06/08 11:26:03;;;;;;;5.57;2.35;;;27.10;46.30;;;;;;5068540;28;20750;-90
2023/06/08 11:28:29;;;;;;;6.53;2.63;;;27.40;48.30;;;;;;5067585;28;20496;-91
2023/06/08 11:30:55;;;;;;;5.47;2.20;;;27.60;48.60;;;;;;5067686;28;20406;-91
2023/06/08 11:33:20;;;;;;;8.43;2.90;;;27.70;45.60;;;;;;5068180;28;20789;-88
2023/06/08 11:35:53;;;;;;;5.73;2.50;;;27.70;45.00;;;;;;5084736;28;20479;-91
2023/06/08 11:38:23;;;;;;;5.63;2.47;;;27.70;46.70;;;;;;5085572;28;20410;-90
2023/06/08 11:40:49;;;;;;;8.38;2.78;;;28.10;45.90;;;;;;5067294;28;20433;-90
2023/06/08 11:43:15;;;;;;;7.38;2.83;;;28.30;45.30;;;;;;5069096;28;20393;-90
2023/06/08 11:45:41;;;;;;;7.93;3.00;;;28.40;43.60;;;;;;5067702;28;20402;-92
2023/06/08 11:48:07;;;;;;;6.20;3.33;;;28.40;44.20;;;;;;5068420;28;20814;-90
2023/06/08 11:50:33;;;;;;;6.95;3.33;;;28.20;43.50;;;;;;5084450;28;20410;-90
2023/06/08 11:53:01;;;;;;;6.65;2.70;;;28.00;44.20;;;;;;5067475;28;20398;-90
2023/06/08 11:55:30;;;;;;;6.88;2.90;;;28.10;46.90;;;;;;5068277;28;20764;-91
2023/06/08 11:58:03;;;;;;;6.85;2.85;;;28.20;44.30;;;;;;5084011;28;20398;-90
2023/06/08 12:00:31;;;;;;;6.55;2.83;;;28.30;42.90;;;;;;5068012;28;20558;-91
2023/06/08 12:02:58;;;;;;;7.10;2.70;;;28.30;42.20;;;;;;5067412;28;20761;-90
2023/06/08 12:05:29;;;;;;;7.18;2.30;;;28.30;43.30;;;;;;5067824;28;20402;-91
2023/06/08 12:07:57;;;;;;;6.53;2.20;;;27.90;43.50;;;;;;5084600;28;20738;-90
2023/06/08 12:10:30;;;;;;;6.30;1.83;;;27.80;44.70;;;;;;5067076;28;20406;-90
2023/06/08 12:12:56;;;;;;;5.63;1.88;;;27.60;43.60;;;;;;5068281;28;20401;-90
2023/06/08 12:15:22;;;;;;;5.90;2.20;;;27.60;44.60;;;;;;5084044;28;20820;-89
2023/06/08 12:17:47;;;;;;;5.80;1.73;;;27.90;43.90;;;;;;5068083;28;20421;-89
2023/06/08 12:20:17;;;;;;;6.33;1.83;;;28.00;46.20;;;;;;5066800;28;20494;-92
2023/06/08 12:22:43;;;;;;;5.90;1.90;;;28.30;44.30;;;;;;5085013;28;20758;-90
2023/06/08 12:25:09;;;;;;;4.95;1.50;;;28.50;47.10;;;;;;5084013;28;20489;-91
2023/06/08 12:27:37;;;;;;;4.55;1.70;;;28.80;42.40;;;;;;5084133;28;20815;-91
2023/06/08 12:30:08;;;;;;;6.63;2.00;;;28.80;42.60;;;;;;5084878;28;20398;-89
2023/06/08 12:32:34;;;;;;;5.60;1.58;;;28.90;43.10;;;;;;5083602;28;20493;-91
2023/06/08 12:35:00;;;;;;;4.70;1.48;;;29.10;42.50;;;;;;5068134;28;20459;-90
2023/06/08 12:37:26;;;;;;;6.55;2.15;;;29.60;43.00;;;;;;5083790;28;20398;-91
2023/06/08 12:39:52;;;;;;;5.70;1.80;;;29.80;43.40;;;;;;5085089;28;21034;-91
2023/06/08 12:42:20;;;;;;;7.87;1.80;;;29.90;42.40;;;;;;5067371;28;20436;-91